createdAt,value
2017-04-28T00:00:03.070Z,0
2017-04-28T00:05:02.743Z,0
2017-04-28T00:10:03.638Z,0
2017-04-28T00:15:03.379Z,0
2017-04-28T00:20:03.152Z,0
2017-04-28T00:25:02.888Z,2
2017-04-28T00:30:03.597Z,0
2017-04-28T00:35:03.208Z,1
2017-04-28T00:40:02.917Z,0
2017-04-28T00:45:33.672Z,0
2017-04-28T00:50:03.304Z,2
2017-04-28T00:55:02.933Z,0
2017-04-28T01:00:03.552Z,0
2017-04-28T01:05:03.316Z,0
2017-04-28T01:10:02.935Z,0
2017-04-28T01:15:02.707Z,0
2017-04-28T01:20:03.541Z,0
2017-04-28T01:25:03.268Z,0
2017-04-28T01:30:03.011Z,0
2017-04-28T01:35:03.828Z,0
2017-04-28T01:40:02.601Z,0
2017-04-28T01:45:03.333Z,0
2017-04-28T01:50:02.993Z,0
2017-04-28T01:55:02.736Z,0
2017-04-28T02:00:03.336Z,0
2017-04-28T02:05:03.002Z,0
2017-04-28T02:10:02.806Z,0
2017-04-28T02:15:03.425Z,2
2017-04-28T02:20:03.264Z,0
2017-04-28T02:25:02.907Z,0
2017-04-28T02:30:03.527Z,2
2017-04-28T02:35:03.356Z,2
2017-04-28T02:40:03.014Z,2
2017-04-28T02:45:02.789Z,3
2017-04-28T02:50:03.560Z,3
2017-04-28T02:55:03.212Z,2
2017-04-28T03:00:03.050Z,3
2017-04-28T03:05:02.878Z,1
2017-04-28T03:10:02.611Z,2
2017-04-28T03:15:03.402Z,0
2017-04-28T03:20:03.043Z,2
2017-04-28T03:25:02.855Z,3
2017-04-28T03:30:03.582Z,3
2017-04-28T03:35:03.195Z,2
2017-04-28T03:40:03.078Z,1
2017-04-28T03:45:02.692Z,3
2017-04-28T03:50:03.311Z,2
2017-04-28T03:55:03.034Z,1
2017-04-28T04:00:02.864Z,2
2017-04-28T04:05:02.697Z,2
2017-04-28T04:10:03.529Z,0
2017-04-28T04:15:03.263Z,1
2017-04-28T04:20:02.881Z,1
2017-04-28T04:25:02.678Z,2
2017-04-28T04:30:03.400Z,1
2017-04-28T04:35:03.078Z,2
2017-04-28T04:40:02.687Z,0
2017-04-28T04:45:03.300Z,0
2017-04-28T04:50:03.027Z,0
2017-04-28T04:55:02.687Z,2
2017-04-28T05:00:03.445Z,2
2017-04-28T05:05:03.160Z,2
2017-04-28T05:10:02.936Z,0
2017-04-28T05:15:02.662Z,0
2017-04-28T05:20:03.243Z,2
2017-04-28T05:25:02.806Z,1
2017-04-28T05:30:03.532Z,1
2017-04-28T05:35:03.307Z,2
2017-04-28T05:40:02.937Z,0
2017-04-28T05:45:03.561Z,3
2017-04-28T05:50:03.323Z,3
2017-04-28T05:55:02.990Z,4
2017-04-28T06:00:02.768Z,4
2017-04-28T06:05:03.339Z,3
2017-04-28T06:10:03.160Z,3
2017-04-28T06:15:02.875Z,4
2017-04-28T06:20:02.650Z,4
2017-04-28T06:25:03.400Z,3
2017-04-28T06:30:03.201Z,3
2017-04-28T06:35:02.920Z,1
2017-04-28T06:40:03.587Z,1
2017-04-28T06:45:03.253Z,4
2017-04-28T06:50:02.967Z,3
2017-04-28T06:55:02.648Z,4
2017-04-28T07:00:03.272Z,6
2017-04-28T07:05:02.906Z,3
2017-04-28T07:10:03.584Z,3
2017-04-28T07:15:03.288Z,6
2017-04-28T07:20:02.941Z,3
2017-04-28T07:25:03.600Z,3
2017-04-28T07:30:03.353Z,7
2017-04-28T07:35:03.175Z,7
2017-04-28T07:40:02.928Z,2
2017-04-28T07:45:02.579Z,2
2017-04-28T07:50:03.320Z,2
2017-04-28T07:55:02.913Z,3
2017-04-28T08:00:02.746Z,4
2017-04-28T08:05:03.407Z,2
2017-04-28T08:10:03.240Z,6
2017-04-28T08:15:02.918Z,1
2017-04-28T08:20:03.600Z,6
2017-04-28T08:25:03.256Z,3
2017-04-28T08:30:03.072Z,2
2017-04-28T08:35:02.772Z,2
2017-04-28T08:40:03.521Z,3
2017-04-28T08:45:03.253Z,5
2017-04-28T08:50:03.045Z,5
2017-04-28T08:55:02.842Z,4
2017-04-28T09:00:02.671Z,3
2017-04-28T09:05:03.388Z,4
2017-04-28T09:10:03.362Z,5
2017-04-28T09:15:03.193Z,2
2017-04-28T09:20:02.786Z,2
2017-04-28T09:25:03.566Z,4
2017-04-28T09:30:03.236Z,7
2017-04-28T09:35:03.069Z,6
2017-04-28T09:40:02.892Z,2
2017-04-28T09:45:02.720Z,2
2017-04-28T09:50:03.505Z,3
2017-04-28T09:55:03.147Z,3
2017-04-28T10:00:02.978Z,2
2017-04-28T10:05:02.755Z,5
2017-04-28T10:10:03.449Z,3
2017-04-28T10:15:03.112Z,6
2017-04-28T10:20:02.986Z,2
2017-04-28T10:25:03.641Z,6
2017-04-28T10:30:03.386Z,4
2017-04-28T10:35:03.115Z,4
2017-04-28T10:40:02.922Z,6
2017-04-28T10:45:03.619Z,7
2017-04-28T10:50:03.239Z,6
2017-04-28T10:55:02.859Z,6
2017-04-28T11:00:02.661Z,6
2017-04-28T11:05:03.336Z,4
2017-04-28T11:10:03.160Z,7
2017-04-28T11:15:02.890Z,6
2017-04-28T11:20:02.871Z,5
2017-04-28T11:25:02.651Z,6
2017-04-28T11:30:03.289Z,5
2017-04-28T11:35:02.996Z,6
2017-04-28T11:40:02.882Z,3
2017-04-28T11:45:02.820Z,1
2017-04-28T11:50:02.709Z,3
2017-04-28T11:55:02.837Z,2
2017-04-28T12:00:02.737Z,4
2017-04-28T12:05:03.382Z,6
2017-04-28T12:10:03.464Z,7
2017-04-28T12:15:03.613Z,5
2017-04-28T12:20:02.735Z,3
2017-04-28T12:25:03.071Z,8
2017-04-28T12:30:03.001Z,5
2017-04-28T12:35:02.670Z,3
2017-04-28T12:40:03.307Z,8
2017-04-28T12:45:03.189Z,6
2017-04-28T12:50:03.248Z,4
2017-04-28T12:55:03.139Z,3
2017-04-28T13:00:03.226Z,4
2017-04-28T13:05:03.042Z,7
2017-04-28T13:10:03.333Z,0
2017-04-28T13:15:03.293Z,5
2017-04-28T13:20:02.987Z,3
2017-04-28T13:25:03.393Z,4
2017-04-28T13:30:03.528Z,4
2017-04-28T13:35:03.263Z,7
2017-04-28T13:40:03.458Z,4
2017-04-28T13:45:02.862Z,2
2017-04-28T13:50:03.318Z,3
2017-04-28T13:55:03.491Z,3
2017-04-28T14:00:02.814Z,4
2017-04-28T14:05:03.448Z,6
2017-04-28T14:10:02.909Z,2
2017-04-28T14:15:02.737Z,4
2017-04-28T14:20:02.958Z,2
2017-04-28T14:25:02.845Z,3
2017-04-28T14:30:03.383Z,2
2017-04-28T14:35:02.907Z,3
2017-04-28T14:40:03.295Z,3
2017-04-28T14:45:02.683Z,3
2017-04-28T14:50:03.075Z,2
2017-04-28T14:55:03.482Z,2
2017-04-28T15:00:03.157Z,4
2017-04-28T15:05:03.424Z,3
2017-04-28T15:10:02.871Z,5
2017-04-28T15:15:03.137Z,4
2017-04-28T15:20:03.180Z,6
2017-04-28T15:25:03.270Z,7
2017-04-28T15:30:03.269Z,7
2017-04-28T15:35:03.098Z,2
2017-04-28T15:40:03.102Z,3
2017-04-28T15:45:03.071Z,2
2017-04-28T15:50:03.029Z,7
2017-04-28T15:55:02.901Z,7
2017-04-28T16:00:03.557Z,3
2017-04-28T16:05:03.395Z,2
2017-04-28T16:10:03.278Z,3
2017-04-28T16:15:02.980Z,1
2017-04-28T16:20:02.699Z,3
2017-04-28T16:25:03.446Z,4
2017-04-28T16:30:03.139Z,3
2017-04-28T16:35:02.851Z,3
2017-04-28T16:40:02.731Z,1
2017-04-28T16:45:03.558Z,0
2017-04-28T16:50:03.415Z,3
2017-04-28T16:55:03.141Z,2
2017-04-28T17:00:02.811Z,3
2017-04-28T17:05:02.622Z,3
2017-04-28T17:10:03.371Z,2
2017-04-28T17:15:03.190Z,1
2017-04-28T17:20:02.931Z,1
2017-04-28T17:25:03.563Z,3
2017-04-28T17:30:03.254Z,2
2017-04-28T17:35:03.054Z,3
2017-04-28T17:40:03.012Z,5
2017-04-28T17:45:02.855Z,5
2017-04-28T17:50:02.622Z,3
2017-04-28T17:55:03.319Z,0
2017-04-28T18:00:03.240Z,2
2017-04-28T18:05:02.982Z,2
2017-04-28T18:10:02.762Z,1
2017-04-28T18:15:03.520Z,2
2017-04-28T18:20:03.150Z,2
2017-04-28T18:25:03.037Z,2
2017-04-28T18:30:02.900Z,2
2017-04-28T18:35:02.673Z,1
2017-04-28T18:40:03.562Z,2
2017-04-28T18:45:03.244Z,0
2017-04-28T18:50:03.078Z,0
2017-04-28T18:55:02.680Z,0
2017-04-28T19:00:03.413Z,0
2017-04-28T19:05:03.288Z,0
2017-04-28T19:10:03.181Z,0
2017-04-28T19:15:02.997Z,1
2017-04-28T19:20:02.794Z,1
2017-04-28T19:25:03.179Z,1
2017-04-28T19:30:03.056Z,0
2017-04-28T19:35:02.705Z,1
2017-04-28T19:40:03.765Z,0
2017-04-28T19:45:03.627Z,1
2017-04-28T19:50:03.378Z,0
2017-04-28T19:55:03.191Z,0
2017-04-28T20:00:02.893Z,0
2017-04-28T20:05:02.692Z,0
2017-04-28T20:10:03.338Z,0
2017-04-28T20:15:03.182Z,0
2017-04-28T20:20:02.884Z,0
2017-04-28T20:25:03.474Z,0
2017-04-28T20:30:03.028Z,0
2017-04-28T20:35:02.881Z,0
2017-04-28T20:40:02.768Z,0
2017-04-28T20:45:03.476Z,0
2017-04-28T20:50:03.272Z,0
2017-04-28T20:55:02.947Z,0
2017-04-28T21:00:03.111Z,0
2017-04-28T21:05:02.771Z,0
2017-04-28T21:10:03.617Z,0
2017-04-28T21:15:03.522Z,0
2017-04-28T21:20:03.406Z,0
2017-04-28T21:25:03.011Z,0
2017-04-28T21:30:02.817Z,0
2017-04-28T21:35:03.583Z,0
2017-04-28T21:40:03.267Z,0
2017-04-28T21:45:03.019Z,0
2017-04-28T21:50:02.783Z,0
2017-04-28T21:55:03.453Z,0
2017-04-28T22:00:03.271Z,0
2017-04-28T22:05:03.159Z,0
2017-04-28T22:10:02.878Z,0
2017-04-28T22:15:03.488Z,0
2017-04-28T22:20:03.152Z,0
2017-04-28T22:25:02.796Z,0
2017-04-28T22:30:03.413Z,0
2017-04-28T22:35:02.972Z,0
2017-04-28T22:40:02.611Z,0
2017-04-28T22:45:04.226Z,0
2017-04-28T22:50:02.996Z,0
2017-04-28T22:55:02.687Z,0
2017-04-28T23:00:03.493Z,0
2017-04-28T23:05:02.872Z,0
2017-04-28T23:10:03.563Z,0
2017-04-28T23:15:03.152Z,0
2017-04-28T23:20:02.902Z,1
2017-04-28T23:25:02.700Z,0
2017-04-28T23:30:03.460Z,0
2017-04-28T23:35:03.048Z,0
2017-04-28T23:40:02.896Z,0
2017-04-28T23:45:03.624Z,1
2017-04-28T23:50:03.285Z,0
2017-04-28T23:55:03.125Z,0
